createdAt,value
2023-06-30T00:00:41.084Z,9.20
2023-06-30T00:02:43.493Z,8.47
2023-06-30T00:04:47.002Z,9.37
2023-06-30T00:06:48.844Z,9.27
2023-06-30T00:08:51.339Z,10.23
2023-06-30T00:10:53.092Z,10.20
2023-06-30T00:12:54.731Z,9.87
2023-06-30T00:14:56.704Z,10.27
2023-06-30T00:16:58.513Z,10.40
2023-06-30T00:19:00.417Z,9.97
2023-06-30T00:21:04.575Z,10.10
2023-06-30T00:23:06.394Z,10.50
2023-06-30T00:25:08.961Z,10.83
2023-06-30T00:27:10.708Z,10.80
2023-06-30T00:29:12.562Z,10.73
2023-06-30T00:31:14.348Z,9.60
2023-06-30T00:33:16.089Z,13.20
2023-06-30T00:35:18.021Z,9.83
2023-06-30T00:37:21.102Z,9.73
2023-06-30T00:39:22.984Z,9.73
2023-06-30T00:41:25.299Z,8.60
2023-06-30T00:43:27.134Z,9.23
2023-06-30T00:45:28.871Z,9.30
2023-06-30T00:47:31.118Z,9.27
2023-06-30T00:49:34.314Z,10.20
2023-06-30T00:51:36.041Z,9.17
2023-06-30T00:53:39.516Z,10.33
2023-06-30T00:55:41.853Z,9.30
2023-06-30T00:57:43.979Z,10.40
2023-06-30T00:59:45.739Z,9.83
2023-06-30T01:03:56.929Z,10.23
2023-06-30T01:06:02.034Z,10.80
2023-06-30T01:08:09.832Z,9.67
2023-06-30T01:10:16.319Z,10.57
2023-06-30T01:12:18.380Z,9.30
2023-06-30T01:14:22.630Z,10.10
2023-06-30T01:16:25.653Z,9.10
2023-06-30T01:18:28.701Z,8.63
2023-06-30T01:20:32.220Z,9.40
2023-06-30T01:22:39.609Z,8.67
2023-06-30T01:24:43.145Z,9.27
2023-06-30T01:26:46.412Z,9.10
2023-06-30T01:28:49.205Z,9.43
2023-06-30T01:30:51.070Z,9.80
2023-06-30T01:32:53.042Z,8.93
2023-06-30T01:34:54.730Z,9.30
2023-06-30T01:36:56.408Z,8.90
2023-06-30T01:38:58.049Z,8.83
2023-06-30T01:41:01.039Z,9.03
2023-06-30T01:43:05.062Z,8.93
2023-06-30T01:45:08.548Z,8.67
2023-06-30T01:47:11.118Z,8.60
2023-06-30T01:49:14.259Z,10.00
2023-06-30T01:51:17.320Z,9.10
2023-06-30T01:53:19.105Z,8.10
2023-06-30T01:55:20.817Z,10.07
2023-06-30T01:57:22.478Z,9.57
2023-06-30T01:59:28.654Z,9.90
2023-06-30T02:01:30.413Z,9.17
2023-06-30T02:03:32.194Z,9.53
2023-06-30T02:05:34.181Z,9.50
2023-06-30T02:07:36.226Z,9.07
2023-06-30T02:09:47.267Z,8.70
2023-06-30T02:11:50.422Z,9.63
2023-06-30T02:13:52.505Z,10.93
2023-06-30T02:15:55.591Z,10.43
2023-06-30T02:17:57.239Z,9.57
2023-06-30T02:19:59.089Z,9.90
2023-06-30T02:22:00.916Z,9.80
2023-06-30T02:24:02.752Z,9.67
2023-06-30T02:26:15.184Z,10.27
2023-06-30T02:28:17.169Z,9.30
2023-06-30T02:30:18.945Z,10.00
2023-06-30T02:32:24.606Z,10.03
2023-06-30T02:34:26.372Z,10.27
2023-06-30T02:36:28.060Z,10.50
2023-06-30T02:38:29.788Z,9.63
2023-06-30T02:40:31.412Z,9.57
2023-06-30T02:42:33.119Z,11.73
2023-06-30T02:44:34.863Z,10.23
2023-06-30T02:46:36.649Z,8.63
2023-06-30T02:48:39.964Z,9.47
2023-06-30T02:50:42.126Z,9.90
2023-06-30T02:52:43.819Z,10.53
2023-06-30T02:54:45.468Z,10.20
2023-06-30T02:56:47.193Z,9.07
2023-06-30T02:58:51.602Z,9.80
2023-06-30T03:00:55.569Z,10.10
2023-06-30T03:02:57.443Z,9.47
2023-06-30T03:05:01.645Z,10.57
2023-06-30T03:07:03.692Z,10.27
2023-06-30T03:09:07.958Z,10.47
2023-06-30T03:11:09.750Z,10.93
2023-06-30T03:13:11.636Z,10.47
2023-06-30T03:15:17.990Z,8.93
2023-06-30T03:17:19.703Z,10.93
2023-06-30T03:19:21.347Z,8.90
2023-06-30T03:21:24.448Z,9.67
2023-06-30T03:23:26.214Z,10.50
2023-06-30T03:25:27.934Z,10.77
2023-06-30T03:27:29.692Z,15.60
2023-06-30T03:29:31.545Z,11.30
2023-06-30T03:31:33.335Z,13.13
2023-06-30T03:33:35.304Z,12.90
2023-06-30T03:35:37.023Z,12.47
2023-06-30T03:37:40.100Z,10.27
2023-06-30T03:39:41.719Z,12.07
2023-06-30T03:41:43.356Z,11.57
2023-06-30T03:43:45.027Z,11.07
2023-06-30T03:45:47.080Z,11.80
2023-06-30T03:47:49.014Z,11.03
2023-06-30T03:49:50.764Z,11.63
2023-06-30T03:51:52.457Z,11.60
2023-06-30T03:53:55.452Z,10.63
2023-06-30T03:55:59.393Z,10.90
2023-06-30T03:58:02.891Z,10.70
2023-06-30T04:00:05.401Z,8.73
2023-06-30T04:02:07.165Z,9.67
2023-06-30T04:04:09.105Z,12.03
2023-06-30T04:06:11.344Z,13.80
2023-06-30T04:08:13.111Z,13.30
2023-06-30T04:10:16.315Z,12.10
2023-06-30T04:12:18.338Z,13.60
2023-06-30T04:14:20.343Z,12.97
2023-06-30T04:16:22.374Z,13.63
2023-06-30T04:18:24.103Z,13.47
2023-06-30T04:20:26.211Z,12.70
2023-06-30T04:22:27.946Z,12.90
2023-06-30T04:24:29.600Z,13.07
2023-06-30T04:26:34.443Z,14.00
2023-06-30T04:28:36.203Z,15.63
2023-06-30T04:30:41.372Z,15.60
2023-06-30T04:32:43.578Z,13.90
2023-06-30T04:34:45.320Z,15.63
2023-06-30T04:36:46.956Z,15.23
2023-06-30T04:38:48.684Z,10.50
2023-06-30T04:41:08.886Z,16.90
2023-06-30T04:43:11.990Z,15.57
2023-06-30T04:45:14.822Z,14.80
2023-06-30T04:47:17.881Z,14.60
2023-06-30T04:49:21.079Z,14.40
2023-06-30T04:51:31.261Z,14.47
2023-06-30T04:53:33.012Z,15.33
2023-06-30T04:55:34.748Z,14.27
2023-06-30T04:57:36.386Z,14.50
2023-06-30T04:59:39.921Z,10.93
2023-06-30T05:01:41.625Z,16.40
2023-06-30T05:03:43.396Z,14.20
2023-06-30T05:05:45.663Z,12.83
2023-06-30T05:07:47.534Z,8.93
2023-06-30T05:09:49.280Z,15.20
2023-06-30T05:11:51.427Z,15.10
2023-06-30T05:13:53.090Z,13.53
2023-06-30T05:15:56.198Z,14.30
2023-06-30T05:17:58.076Z,16.23
2023-06-30T05:19:59.842Z,17.10
2023-06-30T05:22:01.756Z,16.53
2023-06-30T05:24:03.807Z,16.97
2023-06-30T05:26:06.073Z,17.00
2023-06-30T05:28:07.757Z,11.33
2023-06-30T05:30:10.355Z,14.40
2023-06-30T05:32:13.363Z,14.87
2023-06-30T05:34:14.938Z,11.50
2023-06-30T05:36:16.578Z,12.10
2023-06-30T05:38:18.236Z,11.77
2023-06-30T05:40:19.953Z,16.97
2023-06-30T05:42:21.702Z,13.30
2023-06-30T05:44:26.212Z,15.53
2023-06-30T05:46:27.975Z,10.30
2023-06-30T05:48:31.131Z,13.63
2023-06-30T05:50:33.288Z,16.10
2023-06-30T05:52:35.039Z,15.20
2023-06-30T05:54:36.801Z,9.63
2023-06-30T05:56:38.655Z,11.53
2023-06-30T05:58:40.269Z,10.40
2023-06-30T06:00:41.938Z,11.63
2023-06-30T06:02:43.871Z,12.00
2023-06-30T06:04:47.267Z,13.37
2023-06-30T06:06:49.085Z,10.40
2023-06-30T06:08:50.731Z,12.20
2023-06-30T06:10:52.465Z,12.57
2023-06-30T06:12:54.229Z,17.40
2023-06-30T06:14:55.923Z,13.97
2023-06-30T06:16:57.635Z,9.10
2023-06-30T06:18:59.388Z,10.17
2023-06-30T06:21:03.293Z,10.90
2023-06-30T06:23:04.976Z,11.37
2023-06-30T06:25:07.675Z,11.67
2023-06-30T06:27:09.272Z,11.17
2023-06-30T06:29:10.931Z,11.47
2023-06-30T06:31:12.642Z,13.77
2023-06-30T06:33:14.471Z,11.47
2023-06-30T06:35:17.995Z,12.70
2023-06-30T06:37:21.129Z,11.53
2023-06-30T06:39:22.992Z,12.00
2023-06-30T06:41:24.715Z,9.90
2023-06-30T06:43:26.401Z,12.97
2023-06-30T06:45:28.114Z,8.80
2023-06-30T06:48:06.757Z,11.97
2023-06-30T06:50:09.102Z,9.73
2023-06-30T06:52:11.060Z,15.33
2023-06-30T06:54:16.812Z,11.33
2023-06-30T06:56:18.681Z,10.30
2023-06-30T06:58:21.352Z,18.17
2023-06-30T07:00:23.381Z,10.20
2023-06-30T07:02:25.070Z,13.33
2023-06-30T07:04:26.733Z,11.47
2023-06-30T07:06:28.382Z,11.77
2023-06-30T07:08:30.099Z,13.33
2023-06-30T07:10:33.444Z,11.13
2023-06-30T07:12:35.044Z,10.37
2023-06-30T07:14:37.167Z,11.93
2023-06-30T07:16:38.846Z,10.57
2023-06-30T07:18:40.608Z,11.43
2023-06-30T07:20:42.310Z,13.50
2023-06-30T07:22:43.951Z,14.00
2023-06-30T07:24:45.744Z,16.00
2023-06-30T07:26:48.729Z,13.50
2023-06-30T07:28:50.327Z,12.07
2023-06-30T07:30:52.266Z,15.90
2023-06-30T07:33:00.715Z,21.17
2023-06-30T07:35:03.928Z,17.67
2023-06-30T07:37:06.456Z,26.00
2023-06-30T07:39:09.396Z,20.30
2023-06-30T07:41:11.504Z,20.00
2023-06-30T07:43:14.691Z,19.33
2023-06-30T07:45:17.848Z,16.03
2023-06-30T07:47:19.594Z,19.47
2023-06-30T07:49:21.392Z,15.40
2023-06-30T07:51:23.381Z,26.10
2023-06-30T07:53:25.432Z,19.33
2023-06-30T07:55:27.421Z,19.30
2023-06-30T07:57:30.769Z,19.27
2023-06-30T07:59:34.024Z,18.17
2023-06-30T08:01:35.890Z,30.00
2023-06-30T08:03:37.820Z,27.27
2023-06-30T08:05:39.904Z,29.50
2023-06-30T08:07:48.004Z,24.67
2023-06-30T08:09:51.666Z,18.23
2023-06-30T08:11:53.395Z,34.30
2023-06-30T08:13:55.040Z,25.17
2023-06-30T08:15:59.334Z,34.73
2023-06-30T08:18:01.258Z,31.73
2023-06-30T08:20:12.440Z,23.03
2023-06-30T08:22:14.652Z,21.23
2023-06-30T08:24:16.454Z,22.47
2023-06-30T08:26:18.247Z,20.17
2023-06-30T08:28:19.967Z,20.20
2023-06-30T08:30:24.660Z,22.07
2023-06-30T08:32:28.492Z,24.10
2023-06-30T08:34:30.167Z,26.40
2023-06-30T08:36:31.914Z,21.90
2023-06-30T08:38:34.036Z,26.20
2023-06-30T08:40:36.212Z,21.87
2023-06-30T08:42:41.498Z,26.10
2023-06-30T08:44:45.703Z,19.93
2023-06-30T08:46:48.164Z,27.90
2023-06-30T08:48:51.737Z,21.00
2023-06-30T08:50:54.396Z,21.63
2023-06-30T08:52:56.315Z,22.20
2023-06-30T08:54:58.123Z,17.93
2023-06-30T08:57:01.886Z,19.37
2023-06-30T08:59:03.757Z,19.00
2023-06-30T09:01:06.143Z,17.27
2023-06-30T09:03:08.183Z,16.23
2023-06-30T09:05:12.207Z,13.97
2023-06-30T09:07:22.868Z,14.07
2023-06-30T09:09:28.001Z,12.63
2023-06-30T09:11:31.592Z,11.50
2023-06-30T09:13:35.343Z,12.60
2023-06-30T09:15:38.877Z,11.50
2023-06-30T09:17:46.658Z,12.50
2023-06-30T09:19:48.732Z,11.90
2023-06-30T09:21:52.567Z,10.87
2023-06-30T09:23:54.468Z,10.07
2023-06-30T09:25:56.321Z,10.20
2023-06-30T09:27:58.397Z,9.90
2023-06-30T09:30:00.049Z,10.47
2023-06-30T09:32:02.036Z,9.13
2023-06-30T09:34:11.675Z,9.90
2023-06-30T09:36:17.395Z,8.60
2023-06-30T09:38:20.581Z,7.73
2023-06-30T09:40:25.774Z,9.50
2023-06-30T09:42:27.470Z,9.60
2023-06-30T09:44:38.809Z,8.07
2023-06-30T09:46:46.620Z,8.60
2023-06-30T09:48:48.497Z,8.87
2023-06-30T09:50:52.855Z,7.07
2023-06-30T09:52:54.739Z,8.00
2023-06-30T09:54:57.827Z,7.83
2023-06-30T09:57:00.211Z,8.13
2023-06-30T09:59:01.854Z,8.10
2023-06-30T10:01:03.636Z,7.43
2023-06-30T10:03:06.624Z,6.87
2023-06-30T10:05:08.956Z,8.40
2023-06-30T10:07:14.281Z,6.00
2023-06-30T10:09:18.391Z,7.40
2023-06-30T10:11:23.409Z,6.23
2023-06-30T10:13:26.960Z,6.53
2023-06-30T10:15:31.563Z,5.77
2023-06-30T10:17:33.549Z,6.83
2023-06-30T10:19:36.890Z,8.00
2023-06-30T10:21:38.791Z,6.07
2023-06-30T10:23:43.404Z,7.30
2023-06-30T10:25:45.844Z,6.13
2023-06-30T10:27:49.489Z,6.37
2023-06-30T10:29:51.828Z,7.00
2023-06-30T10:33:57.422Z,4.73
2023-06-30T10:36:01.103Z,5.53
2023-06-30T10:38:03.014Z,12.13
2023-06-30T10:40:07.697Z,9.40
2023-06-30T10:42:12.203Z,9.23
2023-06-30T10:44:15.833Z,7.20
2023-06-30T10:46:19.375Z,9.10
2023-06-30T10:48:21.085Z,9.90
2023-06-30T10:50:23.234Z,8.73
2023-06-30T10:52:29.412Z,6.13
2023-06-30T10:54:38.425Z,7.50
2023-06-30T10:56:40.239Z,6.03
2023-06-30T10:58:42.237Z,5.87
2023-06-30T11:01:02.848Z,7.27
2023-06-30T11:03:06.384Z,6.77
2023-06-30T11:05:22.264Z,10.03
2023-06-30T11:07:25.455Z,7.10
2023-06-30T11:09:27.842Z,5.20
2023-06-30T11:11:29.574Z,4.83
2023-06-30T11:13:41.552Z,6.17
2023-06-30T11:15:53.437Z,5.70
2023-06-30T11:18:01.890Z,5.50
2023-06-30T11:20:11.986Z,5.07
2023-06-30T11:22:24.488Z,6.93
2023-06-30T11:24:27.993Z,8.20
2023-06-30T11:26:36.862Z,5.50
2023-06-30T11:28:40.266Z,8.30
2023-06-30T11:30:42.181Z,7.90
2023-06-30T11:32:43.936Z,6.83
2023-06-30T11:34:47.767Z,7.53
2023-06-30T11:36:59.161Z,9.10
2023-06-30T11:39:01.708Z,6.50
2023-06-30T11:41:03.336Z,8.07
2023-06-30T11:43:05.156Z,6.83
2023-06-30T11:45:08.030Z,6.83
2023-06-30T11:47:10.014Z,4.87
2023-06-30T11:49:11.873Z,8.00
2023-06-30T11:51:15.035Z,5.60
2023-06-30T11:53:16.920Z,6.27
2023-06-30T11:55:18.941Z,7.47
2023-06-30T11:57:20.828Z,7.77
2023-06-30T11:59:22.566Z,6.33
2023-06-30T12:01:24.418Z,6.60
2023-06-30T12:03:26.369Z,6.33
2023-06-30T12:05:28.968Z,5.97
2023-06-30T12:07:32.160Z,5.33
2023-06-30T12:09:34.908Z,5.70
2023-06-30T12:11:36.781Z,7.80
2023-06-30T12:13:39.280Z,5.43
2023-06-30T12:15:41.615Z,5.87
2023-06-30T12:17:43.534Z,5.77
2023-06-30T12:19:46.006Z,5.33
2023-06-30T12:21:57.669Z,6.83
2023-06-30T12:24:01.023Z,6.70
2023-06-30T12:26:03.005Z,6.53
2023-06-30T12:28:05.249Z,6.70
2023-06-30T12:30:15.128Z,6.10
2023-06-30T12:32:17.594Z,6.30
2023-06-30T12:34:31.670Z,7.20
2023-06-30T12:36:33.500Z,7.07
2023-06-30T12:38:35.711Z,6.50
2023-06-30T12:40:39.026Z,6.50
2023-06-30T12:42:46.331Z,8.90
2023-06-30T12:44:49.434Z,6.70
2023-06-30T12:46:59.910Z,7.37
2023-06-30T12:49:01.963Z,5.60
2023-06-30T12:51:04.105Z,10.30
2023-06-30T12:53:05.884Z,7.30
2023-06-30T12:55:08.487Z,9.30
2023-06-30T12:57:11.621Z,9.20
2023-06-30T12:59:13.343Z,7.00
2023-06-30T13:01:15.190Z,8.27
2023-06-30T13:03:17.183Z,8.87
2023-06-30T13:05:19.352Z,6.97
2023-06-30T13:07:22.509Z,8.37
2023-06-30T13:09:24.335Z,8.40
2023-06-30T13:11:25.998Z,10.20
2023-06-30T13:13:29.357Z,7.30
2023-06-30T13:15:31.103Z,7.93
2023-06-30T13:17:36.070Z,7.30
2023-06-30T13:19:37.856Z,8.43
2023-06-30T13:21:39.745Z,9.90
2023-06-30T13:23:42.803Z,10.00
2023-06-30T13:25:45.095Z,9.00
2023-06-30T13:27:47.092Z,8.80
2023-06-30T13:29:52.218Z,10.70
2023-06-30T13:31:54.636Z,9.00
2023-06-30T13:33:56.548Z,9.20
2023-06-30T13:35:58.227Z,14.00
2023-06-30T13:38:01.654Z,9.40
2023-06-30T13:40:03.692Z,9.00
2023-06-30T13:42:06.529Z,11.53
2023-06-30T13:44:10.615Z,10.93
2023-06-30T13:46:13.763Z,11.20
2023-06-30T13:48:15.499Z,9.80
2023-06-30T13:50:17.185Z,10.70
2023-06-30T13:52:19.095Z,10.53
2023-06-30T13:54:23.113Z,13.80
2023-06-30T13:56:25.506Z,9.77
2023-06-30T13:58:27.236Z,12.50
2023-06-30T14:00:30.531Z,13.30
2023-06-30T14:02:34.389Z,10.80
2023-06-30T14:04:36.187Z,10.37
2023-06-30T14:06:38.306Z,11.33
2023-06-30T14:08:39.969Z,11.00
2023-06-30T14:10:41.649Z,10.10
2023-06-30T14:12:43.328Z,10.13
2023-06-30T14:14:47.682Z,11.40
2023-06-30T14:16:50.269Z,10.27
2023-06-30T14:18:53.438Z,10.47
2023-06-30T14:20:55.153Z,9.80
2023-06-30T14:22:57.195Z,10.97
2023-06-30T14:24:58.816Z,10.73
2023-06-30T14:27:00.700Z,11.30
2023-06-30T14:29:02.430Z,10.27
2023-06-30T14:31:04.253Z,10.00
2023-06-30T14:33:06.063Z,10.60
2023-06-30T14:35:09.513Z,11.87
2023-06-30T14:37:14.263Z,10.40
2023-06-30T14:39:16.092Z,9.80
2023-06-30T14:41:17.850Z,9.10
2023-06-30T14:43:19.912Z,9.57
2023-06-30T14:45:21.867Z,9.57
2023-06-30T14:47:23.590Z,8.30
2023-06-30T14:49:25.285Z,10.03
2023-06-30T14:51:28.476Z,8.87
2023-06-30T14:53:30.799Z,10.13
2023-06-30T14:55:32.474Z,13.93
2023-06-30T14:57:34.509Z,8.80
2023-06-30T14:59:54.264Z,11.00
2023-06-30T15:01:56.023Z,9.17
2023-06-30T15:03:58.122Z,9.57
2023-06-30T15:06:02.238Z,8.17
2023-06-30T15:08:06.126Z,10.47
2023-06-30T15:10:09.304Z,8.87
2023-06-30T15:12:11.165Z,9.73
2023-06-30T15:14:12.964Z,9.47
2023-06-30T15:16:14.933Z,9.60
2023-06-30T15:18:16.794Z,8.10
2023-06-30T15:20:18.529Z,8.30
2023-06-30T15:22:20.285Z,8.73
2023-06-30T15:24:23.469Z,7.80
2023-06-30T15:26:25.283Z,9.07
2023-06-30T15:28:27.017Z,7.80
2023-06-30T15:30:28.760Z,7.70
2023-06-30T15:32:30.578Z,8.60
2023-06-30T15:34:32.470Z,7.90
2023-06-30T15:36:34.228Z,7.27
2023-06-30T15:38:35.935Z,8.10
2023-06-30T15:40:41.275Z,8.77
2023-06-30T15:42:43.757Z,8.13
2023-06-30T15:44:45.526Z,7.07
2023-06-30T15:46:47.229Z,8.67
2023-06-30T15:48:49.094Z,8.00
2023-06-30T15:50:51.169Z,9.47
2023-06-30T15:52:52.843Z,7.93
2023-06-30T15:55:07.543Z,8.40
2023-06-30T15:57:10.714Z,9.27
2023-06-30T15:59:12.397Z,8.50
2023-06-30T16:01:16.673Z,9.27
2023-06-30T16:03:18.791Z,8.87
2023-06-30T16:05:20.743Z,9.60
2023-06-30T16:07:22.828Z,8.57
2023-06-30T16:09:24.652Z,9.27
2023-06-30T16:11:26.432Z,8.80
2023-06-30T16:13:29.415Z,8.40
2023-06-30T16:15:31.046Z,9.40
2023-06-30T16:17:32.946Z,9.20
2023-06-30T16:19:34.612Z,9.80
2023-06-30T16:21:36.393Z,9.10
2023-06-30T16:23:38.364Z,10.90
2023-06-30T16:25:40.068Z,9.43
2023-06-30T16:27:41.937Z,9.40
2023-06-30T16:29:45.141Z,9.30
2023-06-30T16:31:46.917Z,8.73
2023-06-30T16:33:49.012Z,8.70
2023-06-30T16:35:51.133Z,8.77
2023-06-30T16:37:53.131Z,10.93
2023-06-30T16:39:54.907Z,9.33
2023-06-30T16:41:56.828Z,10.20
2023-06-30T16:43:58.483Z,9.00
2023-06-30T16:46:01.490Z,8.43
2023-06-30T16:48:03.784Z,12.53
2023-06-30T16:50:07.479Z,9.63
2023-06-30T16:52:09.273Z,9.57
2023-06-30T16:54:13.189Z,10.07
2023-06-30T16:56:14.997Z,9.17
2023-06-30T16:58:16.761Z,10.93
2023-06-30T17:00:19.548Z,8.90
2023-06-30T17:02:24.086Z,9.30
2023-06-30T17:04:25.834Z,9.67
2023-06-30T17:06:27.547Z,9.80
2023-06-30T17:08:29.302Z,13.97
2023-06-30T17:10:31.069Z,9.07
2023-06-30T17:12:32.971Z,9.03
2023-06-30T17:14:34.943Z,8.50
2023-06-30T17:16:37.042Z,9.03
2023-06-30T17:18:42.661Z,8.40
2023-06-30T17:20:44.461Z,8.30
2023-06-30T17:22:47.256Z,10.10
2023-06-30T17:24:49.338Z,9.47
2023-06-30T17:26:51.053Z,8.20
2023-06-30T17:28:55.924Z,9.10
2023-06-30T17:30:58.095Z,9.93
2023-06-30T17:33:00.008Z,9.23
2023-06-30T17:35:04.003Z,8.60
2023-06-30T17:37:08.029Z,8.57
2023-06-30T17:39:09.983Z,7.93
2023-06-30T17:41:11.988Z,8.50
2023-06-30T17:43:13.722Z,8.83
2023-06-30T17:45:15.463Z,8.60
2023-06-30T17:47:17.295Z,10.13
2023-06-30T17:49:22.438Z,7.40
2023-06-30T17:51:25.584Z,6.73
2023-06-30T17:53:27.481Z,7.60
2023-06-30T17:55:29.414Z,8.83
2023-06-30T17:57:31.156Z,8.20
2023-06-30T17:59:33.060Z,7.60
2023-06-30T18:01:34.899Z,7.80
2023-06-30T18:03:36.778Z,6.77
2023-06-30T18:05:40.737Z,7.50
2023-06-30T18:07:43.887Z,8.30
2023-06-30T18:09:46.037Z,7.77
2023-06-30T18:11:47.833Z,7.80
2023-06-30T18:13:49.585Z,8.57
2023-06-30T18:15:51.258Z,7.30
2023-06-30T18:17:53.237Z,7.20
2023-06-30T18:19:55.448Z,6.73
2023-06-30T18:21:57.224Z,7.17
2023-06-30T18:24:00.215Z,7.10
2023-06-30T18:26:03.992Z,7.27
2023-06-30T18:28:05.849Z,6.23
2023-06-30T18:30:09.056Z,9.90
2023-06-30T18:32:10.872Z,7.83
2023-06-30T18:34:12.629Z,9.47
2023-06-30T18:36:14.576Z,7.43
2023-06-30T18:38:16.380Z,9.53
2023-06-30T18:40:19.558Z,7.03
2023-06-30T18:42:21.194Z,6.23
2023-06-30T18:44:22.920Z,6.70
2023-06-30T18:46:26.029Z,7.40
2023-06-30T18:48:27.836Z,7.40
2023-06-30T18:50:29.792Z,7.53
2023-06-30T18:52:31.496Z,6.97
2023-06-30T18:54:33.192Z,7.40
2023-06-30T18:56:36.697Z,6.50
2023-06-30T18:58:38.335Z,6.40
2023-06-30T19:00:39.999Z,7.20
2023-06-30T19:02:44.011Z,7.00
2023-06-30T19:04:45.766Z,11.77
2023-06-30T19:06:47.636Z,8.50
2023-06-30T19:08:50.646Z,7.13
2023-06-30T19:10:52.292Z,6.57
2023-06-30T19:12:55.669Z,6.43
2023-06-30T19:14:57.450Z,7.07
2023-06-30T19:16:59.312Z,5.97
2023-06-30T19:19:01.042Z,6.13
2023-06-30T19:21:02.942Z,6.27
2023-06-30T19:23:04.854Z,6.40
2023-06-30T19:25:07.281Z,6.10
2023-06-30T19:27:09.005Z,5.57
2023-06-30T19:29:12.305Z,5.60
2023-06-30T19:31:14.090Z,5.97
2023-06-30T19:33:15.865Z,5.90
2023-06-30T19:35:17.565Z,5.00
2023-06-30T19:37:19.321Z,5.40
2023-06-30T19:39:21.187Z,6.00
2023-06-30T19:41:22.894Z,5.90
2023-06-30T19:43:24.626Z,6.27
2023-06-30T19:45:27.932Z,5.23
2023-06-30T19:47:30.054Z,5.30
2023-06-30T19:49:31.886Z,4.70
2023-06-30T19:51:34.206Z,4.90
2023-06-30T19:53:36.127Z,4.93
2023-06-30T19:55:37.964Z,4.00
2023-06-30T19:57:40.078Z,7.97
2023-06-30T19:59:41.899Z,4.70
2023-06-30T20:01:45.109Z,6.03
2023-06-30T20:03:47.471Z,4.57
2023-06-30T20:05:49.766Z,6.10
2023-06-30T20:07:54.442Z,4.70
2023-06-30T20:09:56.424Z,5.57
2023-06-30T20:11:58.153Z,4.40
2023-06-30T20:14:00.021Z,5.03
2023-06-30T20:16:02.189Z,4.03
2023-06-30T20:18:05.580Z,5.20
2023-06-30T20:20:08.814Z,6.60
2023-06-30T20:22:10.751Z,4.60
2023-06-30T20:24:12.594Z,4.73
2023-06-30T20:26:14.312Z,4.80
2023-06-30T20:28:16.523Z,5.80
2023-06-30T20:30:18.398Z,4.73
2023-06-30T20:32:20.226Z,4.40
2023-06-30T20:34:23.879Z,4.47
2023-06-30T20:36:25.684Z,4.63
2023-06-30T20:38:27.331Z,4.60
2023-06-30T20:40:29.311Z,4.63
2023-06-30T20:42:33.102Z,5.43
2023-06-30T20:44:35.085Z,7.70
2023-06-30T20:46:36.934Z,6.40
2023-06-30T20:48:38.653Z,5.27
2023-06-30T20:50:41.814Z,5.10
2023-06-30T20:52:43.526Z,5.47
2023-06-30T20:54:45.299Z,5.43
2023-06-30T20:56:47.119Z,6.70
2023-06-30T20:58:48.841Z,5.27
2023-06-30T21:00:50.517Z,4.37
2023-06-30T21:02:54.664Z,4.60
2023-06-30T21:04:56.709Z,7.10
2023-06-30T21:07:00.008Z,4.40
2023-06-30T21:09:01.989Z,5.60
2023-06-30T21:11:04.175Z,4.10
2023-06-30T21:13:06.009Z,7.83
2023-06-30T21:15:08.593Z,4.93
2023-06-30T21:17:11.181Z,4.10
2023-06-30T21:19:12.931Z,4.37
2023-06-30T21:21:14.648Z,4.60
2023-06-30T21:23:17.736Z,3.87
2023-06-30T21:25:19.502Z,4.70
2023-06-30T21:27:21.210Z,5.13
2023-06-30T21:29:23.072Z,4.37
2023-06-30T21:31:25.116Z,4.10
2023-06-30T21:33:26.963Z,4.10
2023-06-30T21:35:28.679Z,5.10
2023-06-30T21:37:30.380Z,4.43
2023-06-30T21:39:33.404Z,4.30
2023-06-30T21:41:36.614Z,5.63
2023-06-30T21:43:38.303Z,3.83
2023-06-30T21:45:39.870Z,6.27
2023-06-30T21:47:41.661Z,6.30
2023-06-30T21:49:43.306Z,4.37
2023-06-30T21:51:44.903Z,4.57
2023-06-30T21:53:46.681Z,6.80
2023-06-30T21:55:49.905Z,6.13
2023-06-30T21:57:51.557Z,7.10
2023-06-30T21:59:53.332Z,5.27
2023-06-30T22:01:55.084Z,4.70
2023-06-30T22:03:56.922Z,5.00
2023-06-30T22:05:58.846Z,5.70
2023-06-30T22:08:00.525Z,4.63
2023-06-30T22:10:02.196Z,5.30
2023-06-30T22:12:06.437Z,5.30
2023-06-30T22:14:08.444Z,5.00
2023-06-30T22:16:10.156Z,4.80
2023-06-30T22:18:14.104Z,6.90
2023-06-30T22:20:15.772Z,4.87
2023-06-30T22:22:17.387Z,6.83
2023-06-30T22:24:19.146Z,5.20
2023-06-30T22:26:20.844Z,5.03
2023-06-30T22:28:23.909Z,5.37
2023-06-30T22:30:27.474Z,5.60
2023-06-30T22:32:29.149Z,6.10
2023-06-30T22:34:30.842Z,5.00
2023-06-30T22:36:32.553Z,4.83
2023-06-30T22:38:34.233Z,7.23
2023-06-30T22:40:35.962Z,5.77
2023-06-30T22:42:37.616Z,5.87
2023-06-30T22:44:40.660Z,5.37
2023-06-30T22:46:42.302Z,5.00
2023-06-30T22:48:44.601Z,5.00
2023-06-30T22:50:46.640Z,6.30
2023-06-30T22:52:48.551Z,4.80
2023-06-30T22:54:50.473Z,4.93
2023-06-30T22:56:52.185Z,4.93
2023-06-30T22:58:55.030Z,5.37
2023-06-30T23:00:58.199Z,4.77
2023-06-30T23:03:00.049Z,6.60
2023-06-30T23:05:02.047Z,5.00
2023-06-30T23:07:04.530Z,4.83
2023-06-30T23:09:06.273Z,7.17
2023-06-30T23:11:07.898Z,7.13
2023-06-30T23:13:09.615Z,7.27
2023-06-30T23:15:11.664Z,5.03
2023-06-30T23:17:14.845Z,5.20
2023-06-30T23:19:16.637Z,5.73
2023-06-30T23:21:18.319Z,6.43
2023-06-30T23:23:19.993Z,5.43
2023-06-30T23:25:24.830Z,7.20
2023-06-30T23:27:26.555Z,5.23
2023-06-30T23:29:28.303Z,7.33
2023-06-30T23:31:30.176Z,7.13
2023-06-30T23:33:33.282Z,4.90
2023-06-30T23:35:34.949Z,7.50
2023-06-30T23:37:36.731Z,5.27
2023-06-30T23:39:39.637Z,6.20
2023-06-30T23:41:41.305Z,6.50
2023-06-30T23:43:43.000Z,7.40
2023-06-30T23:45:44.687Z,5.50
2023-06-30T23:47:46.345Z,4.83
2023-06-30T23:49:49.532Z,9.80
2023-06-30T23:51:51.231Z,5.43
2023-06-30T23:53:52.902Z,6.43
2023-06-30T23:55:54.612Z,6.70
2023-06-30T23:57:56.353Z,5.63
2023-06-30T23:59:58.045Z,5.00
